createdAt,value
2023-02-06T00:01:59.192Z,28.73
2023-02-06T00:05:01.891Z,24.42
2023-02-06T00:08:04.644Z,24.77
2023-02-06T00:11:11.097Z,24.10
2023-02-06T00:14:13.490Z,28.37
2023-02-06T00:17:16.186Z,26.50
2023-02-06T00:20:18.861Z,26.90
2023-02-06T00:23:21.528Z,24.83
2023-02-06T00:26:24.397Z,26.52
2023-02-06T00:29:27.400Z,30.27
2023-02-06T00:32:29.796Z,26.45
2023-02-06T00:35:32.427Z,26.15
2023-02-06T00:38:36.708Z,27.77
2023-02-06T00:41:39.320Z,26.60
2023-02-06T00:44:41.736Z,29.20
2023-02-06T00:47:44.669Z,29.40
2023-02-06T00:50:51.217Z,27.80
2023-02-06T00:53:53.814Z,22.52
2023-02-06T00:56:56.160Z,20.25
2023-02-06T00:59:58.798Z,19.60
2023-02-06T01:03:01.344Z,25.33
2023-02-06T01:06:04.088Z,24.90
2023-02-06T01:09:06.501Z,25.58
2023-02-06T01:12:09.165Z,24.80
2023-02-06T01:15:13.386Z,24.23
2023-02-06T01:18:16.012Z,21.33
2023-02-06T01:21:21.991Z,21.90
2023-02-06T01:24:24.712Z,19.95
2023-02-06T01:27:27.377Z,18.92
2023-02-06T01:30:30.074Z,16.10
2023-02-06T01:33:32.430Z,13.48
2023-02-06T01:36:35.025Z,15.18
2023-02-06T01:39:37.366Z,15.20
2023-02-06T01:42:40.716Z,15.95
2023-02-06T01:45:46.963Z,14.17
2023-02-06T01:48:54.044Z,17.02
2023-02-06T01:52:03.944Z,13.38
2023-02-06T01:55:06.721Z,14.90
2023-02-06T01:58:11.658Z,14.10
2023-02-06T02:01:15.493Z,12.67
2023-02-06T02:04:22.771Z,13.77
2023-02-06T02:07:29.289Z,13.62
2023-02-06T02:10:32.962Z,13.50
2023-02-06T02:13:38.241Z,13.23
2023-02-06T02:16:40.838Z,13.13
2023-02-06T02:20:22.143Z,14.43
2023-02-06T02:23:33.447Z,15.15
2023-02-06T02:26:42.081Z,12.73
2023-02-06T02:30:15.468Z,11.60
2023-02-06T02:33:49.985Z,12.13
2023-02-06T02:37:06.811Z,9.18
2023-02-06T02:40:28.131Z,11.65
2023-02-06T02:43:33.796Z,18.20
2023-02-06T02:46:41.444Z,11.30
2023-02-06T02:49:45.912Z,13.37
2023-02-06T02:52:49.076Z,12.98
2023-02-06T02:55:51.497Z,10.20
2023-02-06T02:59:03.216Z,12.35
2023-02-06T03:02:11.325Z,9.30
2023-02-06T03:05:20.240Z,13.93
2023-02-06T03:08:32.842Z,13.20
2023-02-06T03:11:41.752Z,9.65
2023-02-06T03:14:58.346Z,12.32
2023-02-06T03:18:31.103Z,10.95
2023-02-06T03:21:36.781Z,13.60
2023-02-06T03:24:40.212Z,9.05
2023-02-06T03:27:43.734Z,9.77
2023-02-06T03:30:51.204Z,10.60
2023-02-06T03:34:01.067Z,11.73
2023-02-06T03:37:03.867Z,10.47
2023-02-06T03:40:08.100Z,15.52
2023-02-06T03:43:18.592Z,12.07
2023-02-06T03:46:24.355Z,12.52
2023-02-06T03:49:30.144Z,14.75
2023-02-06T03:52:39.861Z,13.33
2023-02-06T03:55:44.245Z,15.32
2023-02-06T03:58:46.566Z,15.85
2023-02-06T04:01:55.961Z,16.62
2023-02-06T04:04:58.589Z,16.40
2023-02-06T04:08:00.890Z,15.13
2023-02-06T04:11:03.672Z,16.75
2023-02-06T04:14:05.989Z,15.63
2023-02-06T04:17:09.175Z,12.43
2023-02-06T04:20:11.800Z,13.18
2023-02-06T04:23:14.451Z,16.40
2023-02-06T04:26:16.814Z,13.73
2023-02-06T04:29:19.641Z,14.43
2023-02-06T04:32:22.144Z,15.57
2023-02-06T04:35:24.789Z,15.25
2023-02-06T04:38:27.121Z,15.03
2023-02-06T04:41:29.706Z,14.65
2023-02-06T04:44:33.694Z,15.20
2023-02-06T04:47:36.368Z,16.60
2023-02-06T04:50:38.666Z,15.63
2023-02-06T04:53:41.356Z,16.43
2023-02-06T04:56:45.515Z,18.52
2023-02-06T04:59:48.101Z,15.88
2023-02-06T05:02:50.539Z,10.90
2023-02-06T05:05:53.299Z,11.98
2023-02-06T05:08:55.974Z,11.17
2023-02-06T05:11:58.609Z,12.00
2023-02-06T05:15:00.957Z,13.73
2023-02-06T05:18:03.990Z,11.20
2023-02-06T05:21:07.090Z,13.50
2023-02-06T05:24:09.708Z,10.97
2023-02-06T05:27:12.074Z,12.88
2023-02-06T05:30:14.877Z,14.30
2023-02-06T05:33:17.273Z,14.13
2023-02-06T05:36:20.409Z,14.65
2023-02-06T05:39:23.051Z,12.07
2023-02-06T05:42:25.738Z,14.27
2023-02-06T05:45:28.079Z,18.45
2023-02-06T05:48:31.127Z,19.60
2023-02-06T05:51:33.680Z,12.25
2023-02-06T05:54:36.457Z,13.70
2023-02-06T05:57:38.819Z,14.00
2023-02-06T06:00:41.615Z,12.82
2023-02-06T06:03:44.304Z,14.43
2023-02-06T06:06:46.741Z,16.65
2023-02-06T06:09:49.473Z,14.20
2023-02-06T06:12:51.833Z,18.70
2023-02-06T06:15:54.550Z,14.77
2023-02-06T06:18:57.020Z,17.10
2023-02-06T06:21:59.726Z,14.48
2023-02-06T06:25:02.287Z,12.87
2023-02-06T06:28:05.232Z,15.15
2023-02-06T06:31:11.856Z,12.13
2023-02-06T06:34:14.557Z,14.90
2023-02-06T06:37:16.865Z,16.23
2023-02-06T06:40:19.634Z,16.70
2023-02-06T06:43:22.219Z,17.50
2023-02-06T06:46:25.240Z,17.90
2023-02-06T06:49:29.032Z,17.87
2023-02-06T06:52:32.020Z,16.65
2023-02-06T06:55:34.902Z,16.73
2023-02-06T06:58:37.812Z,16.15
2023-02-06T07:01:40.269Z,19.05
2023-02-06T07:04:43.086Z,13.05
2023-02-06T07:07:45.440Z,17.45
2023-02-06T07:10:48.371Z,16.07
2023-02-06T07:13:51.014Z,15.75
2023-02-06T07:16:53.687Z,15.23
2023-02-06T07:19:56.096Z,19.48
2023-02-06T07:22:58.716Z,17.10
2023-02-06T07:26:02.423Z,14.43
2023-02-06T07:29:05.203Z,21.52
2023-02-06T07:32:07.861Z,14.55
2023-02-06T07:35:12.689Z,18.92
2023-02-06T07:38:15.064Z,22.25
2023-02-06T07:41:18.028Z,16.37
2023-02-06T07:44:20.404Z,15.30
2023-02-06T07:47:23.072Z,20.67
2023-02-06T07:50:25.496Z,15.73
2023-02-06T07:53:28.473Z,15.98
2023-02-06T07:56:30.880Z,14.93
2023-02-06T07:59:33.569Z,18.77
2023-02-06T08:02:35.922Z,19.62
2023-02-06T08:05:39.794Z,16.33
2023-02-06T08:08:43.313Z,16.45
2023-02-06T08:11:46.011Z,15.20
2023-02-06T08:14:48.611Z,19.10
2023-02-06T08:17:51.238Z,14.55
2023-02-06T08:20:53.580Z,14.18
2023-02-06T08:23:58.283Z,12.63
2023-02-06T08:27:00.700Z,14.37
2023-02-06T08:30:04.630Z,13.62
2023-02-06T08:33:06.968Z,14.00
2023-02-06T08:36:10.183Z,13.73
2023-02-06T08:39:14.250Z,19.67
2023-02-06T08:42:16.912Z,20.13
2023-02-06T08:45:19.550Z,15.85
2023-02-06T08:48:22.240Z,16.08
2023-02-06T08:51:27.982Z,18.02
2023-02-06T08:54:31.439Z,17.35
2023-02-06T08:57:34.668Z,16.40
2023-02-06T09:00:37.287Z,14.40
2023-02-06T09:03:40.236Z,16.45
2023-02-06T09:06:45.282Z,15.88
2023-02-06T09:09:47.608Z,15.00
2023-02-06T09:12:53.776Z,18.87
2023-02-06T09:15:56.229Z,16.58
2023-02-06T09:19:02.693Z,18.45
2023-02-06T09:22:07.137Z,18.42
2023-02-06T09:25:10.353Z,14.48
2023-02-06T09:28:12.768Z,14.57
2023-02-06T09:31:15.596Z,14.38
2023-02-06T09:34:17.993Z,18.52
2023-02-06T09:37:21.514Z,15.02
2023-02-06T09:40:27.013Z,15.45
2023-02-06T09:43:31.919Z,13.40
2023-02-06T09:46:37.247Z,18.80
2023-02-06T09:49:44.772Z,15.75
2023-02-06T09:53:23.663Z,14.38
2023-02-06T09:56:50.874Z,12.27
2023-02-06T10:00:02.830Z,17.60
2023-02-06T10:03:31.845Z,13.65
2023-02-06T10:07:13.988Z,15.30
2023-02-06T10:10:22.580Z,14.57
2023-02-06T10:13:33.451Z,19.33
2023-02-06T10:16:46.139Z,15.40
2023-02-06T10:20:07.542Z,12.95
2023-02-06T10:23:27.109Z,12.85
2023-02-06T10:26:29.949Z,13.05
2023-02-06T10:29:34.676Z,16.00
2023-02-06T10:32:55.625Z,16.10
2023-02-06T10:36:09.127Z,13.70
2023-02-06T10:39:37.995Z,12.90
2023-02-06T10:42:56.542Z,16.20
2023-02-06T10:46:38.305Z,9.05
2023-02-06T10:50:07.266Z,12.20
2023-02-06T10:53:30.445Z,9.02
2023-02-06T10:56:44.636Z,8.32
2023-02-06T10:59:53.698Z,8.75
2023-02-06T11:03:08.167Z,9.65
2023-02-06T11:06:16.020Z,11.43
2023-02-06T11:09:18.375Z,9.45
2023-02-06T11:12:30.922Z,13.00
2023-02-06T11:15:47.076Z,12.82
2023-02-06T11:18:50.330Z,11.73
2023-02-06T11:22:08.664Z,13.87
2023-02-06T11:25:29.256Z,13.60
2023-02-06T11:28:34.591Z,12.40
2023-02-06T11:31:44.000Z,16.55
2023-02-06T11:35:01.537Z,14.75
2023-02-06T11:38:13.515Z,15.23
2023-02-06T11:41:19.184Z,16.48
2023-02-06T11:44:25.325Z,18.92
2023-02-06T11:47:38.154Z,14.00
2023-02-06T11:50:41.310Z,13.88
2023-02-06T11:54:03.951Z,13.60
2023-02-06T11:57:28.777Z,12.85
2023-02-06T12:00:31.205Z,15.25
2023-02-06T12:03:59.360Z,13.45
2023-02-06T12:07:14.065Z,14.20
2023-02-06T12:10:19.195Z,15.13
2023-02-06T12:13:27.896Z,11.93
2023-02-06T12:16:36.061Z,18.80
2023-02-06T12:20:06.913Z,18.20
2023-02-06T12:23:27.861Z,14.02
2023-02-06T12:26:33.680Z,13.27
2023-02-06T12:29:41.960Z,12.95
2023-02-06T12:32:50.345Z,13.68
2023-02-06T12:35:59.494Z,15.32
2023-02-06T12:39:03.745Z,12.32
2023-02-06T12:42:18.180Z,13.57
2023-02-06T12:45:35.660Z,14.57
2023-02-06T12:49:07.788Z,16.90
2023-02-06T12:52:43.841Z,13.30
2023-02-06T12:56:00.535Z,14.15
2023-02-06T12:59:38.538Z,14.33
2023-02-06T13:03:03.302Z,14.60
2023-02-06T13:06:11.744Z,17.58
2023-02-06T13:09:29.489Z,16.67
2023-02-06T13:12:33.761Z,17.52
2023-02-06T13:15:40.889Z,14.87
2023-02-06T13:18:44.699Z,15.43
2023-02-06T13:21:52.391Z,15.15
2023-02-06T13:24:57.687Z,16.40
2023-02-06T13:28:22.412Z,18.52
2023-02-06T13:31:27.483Z,12.10
2023-02-06T13:34:30.426Z,16.37
2023-02-06T13:37:40.104Z,15.23
2023-02-06T13:40:42.822Z,17.12
2023-02-06T13:43:55.514Z,15.60
2023-02-06T13:47:22.622Z,15.87
2023-02-06T13:50:49.894Z,14.00
2023-02-06T13:54:09.676Z,14.95
2023-02-06T13:57:33.870Z,14.07
2023-02-06T14:00:42.149Z,15.55
2023-02-06T14:03:48.789Z,15.37
2023-02-06T14:07:05.820Z,13.35
2023-02-06T14:10:27.436Z,15.65
2023-02-06T14:13:48.246Z,18.30
2023-02-06T14:17:19.296Z,15.48
2023-02-06T14:20:46.367Z,12.37
2023-02-06T14:24:20.161Z,12.93
2023-02-06T14:27:40.719Z,14.57
2023-02-06T14:30:55.728Z,14.27
2023-02-06T14:34:20.181Z,14.32
2023-02-06T14:37:25.915Z,14.87
2023-02-06T14:40:33.616Z,14.45
2023-02-06T14:43:40.609Z,11.60
2023-02-06T14:46:43.251Z,15.18
2023-02-06T14:49:46.768Z,12.82
2023-02-06T14:52:54.447Z,14.97
2023-02-06T14:56:18.652Z,17.42
2023-02-06T14:59:21.204Z,27.77
2023-02-06T15:02:34.548Z,14.80
2023-02-06T15:05:39.615Z,18.10
2023-02-06T15:08:50.168Z,16.63
2023-02-06T15:11:58.448Z,13.48
2023-02-06T15:15:10.171Z,15.07
2023-02-06T15:18:17.958Z,15.57
2023-02-06T15:21:21.190Z,15.52
2023-02-06T15:24:41.662Z,14.87
2023-02-06T15:27:44.441Z,13.98
2023-02-06T15:30:52.282Z,13.25
2023-02-06T15:33:58.939Z,16.45
2023-02-06T15:37:18.799Z,13.77
2023-02-06T15:40:31.029Z,15.33
2023-02-06T15:43:34.495Z,19.95
2023-02-06T15:46:38.068Z,14.60
2023-02-06T15:49:47.149Z,17.17
2023-02-06T15:52:50.594Z,15.75
2023-02-06T15:55:56.641Z,16.07
2023-02-06T15:59:05.561Z,18.12
2023-02-06T16:02:19.844Z,18.15
2023-02-06T16:05:35.169Z,16.67
2023-02-06T16:08:38.134Z,17.05
2023-02-06T16:11:46.718Z,15.10
2023-02-06T16:15:00.395Z,14.02
2023-02-06T16:18:25.356Z,14.93
2023-02-06T16:21:32.465Z,17.67
2023-02-06T16:24:35.186Z,20.67
2023-02-06T16:27:44.177Z,18.30
2023-02-06T16:30:55.153Z,16.58
2023-02-06T16:34:04.386Z,16.90
2023-02-06T16:37:13.292Z,20.15
2023-02-06T16:40:17.068Z,16.45
2023-02-06T16:43:20.191Z,18.50
2023-02-06T16:46:23.522Z,32.13
2023-02-06T16:49:26.197Z,18.67
2023-02-06T16:52:32.179Z,14.38
2023-02-06T16:55:34.842Z,21.20
2023-02-06T16:58:37.196Z,16.30
2023-02-06T17:01:39.962Z,18.75
2023-02-06T17:04:42.768Z,17.75
2023-02-06T17:07:49.074Z,16.75
2023-02-06T17:10:52.209Z,21.12
2023-02-06T17:13:54.937Z,23.47
2023-02-06T17:16:57.391Z,18.27
2023-02-06T17:20:00.116Z,18.62
2023-02-06T17:23:02.987Z,19.17
2023-02-06T17:26:05.780Z,24.33
2023-02-06T17:29:08.129Z,25.13
2023-02-06T17:32:11.164Z,27.35
2023-02-06T17:35:13.573Z,24.45
2023-02-06T17:38:16.224Z,26.30
2023-02-06T17:41:18.535Z,26.55
2023-02-06T17:44:21.411Z,29.33
2023-02-06T17:47:24.118Z,36.85
2023-02-06T17:50:28.511Z,28.95
2023-02-06T17:53:30.853Z,28.67
2023-02-06T17:56:34.294Z,32.63
2023-02-06T17:59:36.804Z,31.37
2023-02-06T18:02:39.654Z,30.00
2023-02-06T18:05:42.631Z,26.80
2023-02-06T18:08:45.774Z,27.62
2023-02-06T18:11:48.430Z,27.05
2023-02-06T18:14:51.028Z,25.17
2023-02-06T18:17:54.946Z,24.23
2023-02-06T18:20:58.225Z,31.33
2023-02-06T18:24:01.571Z,28.60
2023-02-06T18:27:05.669Z,22.17
2023-02-06T18:30:09.383Z,22.60
2023-02-06T18:33:12.867Z,29.77
2023-02-06T18:36:15.867Z,24.42
2023-02-06T18:39:18.302Z,27.77
2023-02-06T18:42:39.803Z,28.83
2023-02-06T18:45:43.124Z,24.77
2023-02-06T18:48:45.782Z,23.48
2023-02-06T18:51:48.261Z,27.05
2023-02-06T18:54:50.941Z,27.92
2023-02-06T18:57:53.900Z,26.55
2023-02-06T19:00:56.575Z,24.23
2023-02-06T19:03:59.508Z,24.75
2023-02-06T19:07:02.196Z,25.58
2023-02-06T19:10:06.786Z,26.90
2023-02-06T19:13:09.500Z,30.98
2023-02-06T19:16:16.792Z,25.30
2023-02-06T19:19:19.607Z,29.92
2023-02-06T19:22:22.191Z,28.20
2023-02-06T19:25:24.967Z,29.45
2023-02-06T19:28:27.314Z,27.75
2023-02-06T19:31:31.984Z,36.10
2023-02-06T19:34:37.110Z,31.20
2023-02-06T19:37:40.163Z,28.95
2023-02-06T19:40:44.201Z,31.37
2023-02-06T19:43:48.381Z,32.10
2023-02-06T19:46:50.770Z,35.73
2023-02-06T19:49:53.491Z,39.75
2023-02-06T19:52:56.803Z,35.20
2023-02-06T19:55:59.601Z,36.85
2023-02-06T19:59:05.262Z,34.63
2023-02-06T20:02:10.449Z,33.43
2023-02-06T20:05:13.072Z,33.85
2023-02-06T20:08:15.557Z,23.70
2023-02-06T20:11:21.179Z,23.17
2023-02-06T20:14:24.590Z,25.67
2023-02-06T20:17:27.865Z,25.20
2023-02-06T20:20:33.802Z,24.95
2023-02-06T20:23:38.430Z,28.90
2023-02-06T20:26:42.296Z,24.27
2023-02-06T20:29:45.948Z,22.55
2023-02-06T20:32:48.361Z,25.70
2023-02-06T20:35:50.993Z,23.55
2023-02-06T20:38:59.747Z,25.58
2023-02-06T20:42:02.387Z,28.73
2023-02-06T20:45:04.989Z,18.35
2023-02-06T20:48:07.664Z,24.97
2023-02-06T20:51:10.997Z,20.45
2023-02-06T20:54:13.706Z,27.05
2023-02-06T20:57:16.038Z,30.15
2023-02-06T21:00:19.075Z,27.10
2023-02-06T21:03:22.226Z,25.43
2023-02-06T21:06:25.814Z,25.98
2023-02-06T21:09:29.188Z,23.10
2023-02-06T21:12:32.163Z,21.08
2023-02-06T21:15:34.596Z,22.92
2023-02-06T21:18:37.897Z,22.80
2023-02-06T21:21:41.062Z,24.48
2023-02-06T21:24:43.864Z,24.30
2023-02-06T21:27:46.787Z,23.73
2023-02-06T21:30:50.254Z,22.67
2023-02-06T21:33:52.803Z,27.83
2023-02-06T21:36:55.607Z,24.08
2023-02-06T21:39:57.979Z,23.10
2023-02-06T21:43:00.604Z,22.48
2023-02-06T21:46:03.672Z,25.75
2023-02-06T21:49:06.722Z,27.33
2023-02-06T21:52:09.072Z,22.65
2023-02-06T21:55:11.835Z,20.30
2023-02-06T21:58:15.239Z,22.95
2023-02-06T22:01:27.205Z,23.48
2023-02-06T22:04:29.915Z,29.57
2023-02-06T22:07:36.362Z,24.92
2023-02-06T22:10:39.089Z,23.08
2023-02-06T22:13:42.687Z,22.62
2023-02-06T22:16:48.223Z,26.37
2023-02-06T22:19:50.973Z,23.43
2023-02-06T22:22:55.096Z,21.73
2023-02-06T22:25:57.629Z,26.10
2023-02-06T22:29:03.447Z,24.75
2023-02-06T22:32:06.044Z,26.35
2023-02-06T22:35:08.864Z,27.20
2023-02-06T22:38:12.063Z,29.58
2023-02-06T22:41:16.707Z,32.22
2023-02-06T22:44:20.576Z,33.60
2023-02-06T22:47:23.278Z,26.92
2023-02-06T22:50:25.582Z,23.20
2023-02-06T22:53:31.933Z,29.33
2023-02-06T22:56:41.095Z,25.60
2023-02-06T22:59:43.803Z,31.02
2023-02-06T23:02:46.229Z,31.98
2023-02-06T23:05:48.931Z,35.20
2023-02-06T23:08:51.579Z,31.08
2023-02-06T23:11:55.177Z,28.17
2023-02-06T23:14:57.605Z,29.87
2023-02-06T23:18:00.299Z,29.40
2023-02-06T23:21:09.984Z,32.10
2023-02-06T23:24:13.516Z,27.85
2023-02-06T23:27:15.829Z,31.15
2023-02-06T23:30:18.687Z,29.12
2023-02-06T23:33:22.229Z,30.60
2023-02-06T23:36:26.988Z,31.73
2023-02-06T23:39:29.342Z,29.27
2023-02-06T23:42:32.017Z,32.22
2023-02-06T23:45:34.471Z,29.02
2023-02-06T23:48:37.685Z,30.55
2023-02-06T23:51:40.110Z,32.43
2023-02-06T23:54:42.756Z,33.10
2023-02-06T23:57:45.529Z,31.55
